sensor_id;sensor_type;location;lat;lon;timestamp;P1;durP1;ratioP1;P2;durP2;ratioP2
70014;SDS011;57358;51.094;6.760;2023-04-16T00:01:11;5.18;;;4.68;;
70014;SDS011;57358;51.094;6.760;2023-04-16T00:03:39;5.03;;;4.70;;
70014;SDS011;57358;51.094;6.760;2023-04-16T00:06:06;5.25;;;4.85;;
70014;SDS011;57358;51.094;6.760;2023-04-16T00:08:33;5.45;;;5.10;;
70014;SDS011;57358;51.094;6.760;2023-04-16T00:11:00;4.93;;;4.53;;
70014;SDS011;57358;51.094;6.760;2023-04-16T00:13:27;5.95;;;5.18;;
70014;SDS011;57358;51.094;6.760;2023-04-16T00:15:53;5.57;;;5.18;;
70014;SDS011;57358;51.094;6.760;2023-04-16T00:18:20;10.80;;;5.00;;
70014;SDS011;57358;51.094;6.760;2023-04-16T00:20:47;6.93;;;6.03;;
70014;SDS011;57358;51.094;6.760;2023-04-16T00:23:13;6.35;;;5.78;;
70014;SDS011;57358;51.094;6.760;2023-04-16T00:25:42;6.32;;;5.80;;
70014;SDS011;57358;51.094;6.760;2023-04-16T00:28:08;7.15;;;6.40;;
70014;SDS011;57358;51.094;6.760;2023-04-16T00:30:36;7.22;;;5.95;;
70014;SDS011;57358;51.094;6.760;2023-04-16T00:33:02;6.32;;;5.82;;
70014;SDS011;57358;51.094;6.760;2023-04-16T00:35:29;10.25;;;5.10;;
70014;SDS011;57358;51.094;6.760;2023-04-16T00:37:56;5.90;;;5.40;;
70014;SDS011;57358;51.094;6.760;2023-04-16T00:40:22;6.22;;;5.72;;
70014;SDS011;57358;51.094;6.760;2023-04-16T00:42:53;6.03;;;5.50;;
70014;SDS011;57358;51.094;6.760;2023-04-16T00:45:20;6.82;;;6.20;;
70014;SDS011;57358;51.094;6.760;2023-04-16T00:47:46;10.48;;;5.65;;
70014;SDS011;57358;51.094;6.760;2023-04-16T00:50:12;5.47;;;5.13;;
70014;SDS011;57358;51.094;6.760;2023-04-16T00:52:39;4.80;;;4.50;;
70014;SDS011;57358;51.094;6.760;2023-04-16T00:55:06;5.65;;;5.22;;
70014;SDS011;57358;51.094;6.760;2023-04-16T00:57:33;6.03;;;5.20;;
70014;SDS011;57358;51.094;6.760;2023-04-16T00:59:59;5.60;;;5.22;;
70014;SDS011;57358;51.094;6.760;2023-04-16T01:02:25;13.55;;;6.45;;
70014;SDS011;57358;51.094;6.760;2023-04-16T01:04:52;6.47;;;5.88;;
70014;SDS011;57358;51.094;6.760;2023-04-16T01:07:20;10.52;;;6.32;;
70014;SDS011;57358;51.094;6.760;2023-04-16T01:09:46;5.95;;;5.45;;
70014;SDS011;57358;51.094;6.760;2023-04-16T01:12:12;5.38;;;4.97;;
70014;SDS011;57358;51.094;6.760;2023-04-16T01:14:39;6.80;;;6.25;;
70014;SDS011;57358;51.094;6.760;2023-04-16T01:17:05;6.18;;;5.55;;
70014;SDS011;57358;51.094;6.760;2023-04-16T01:19:31;6.03;;;5.45;;
70014;SDS011;57358;51.094;6.760;2023-04-16T01:22:02;6.03;;;5.53;;
70014;SDS011;57358;51.094;6.760;2023-04-16T01:24:29;9.07;;;5.50;;
70014;SDS011;57358;51.094;6.760;2023-04-16T01:26:59;5.97;;;5.47;;
70014;SDS011;57358;51.094;6.760;2023-04-16T01:29:26;7.68;;;6.35;;
70014;SDS011;57358;51.094;6.760;2023-04-16T01:31:52;8.98;;;6.68;;
70014;SDS011;57358;51.094;6.760;2023-04-16T01:34:19;5.88;;;4.95;;
70014;SDS011;57358;51.094;6.760;2023-04-16T01:36:45;5.80;;;5.30;;
70014;SDS011;57358;51.094;6.760;2023-04-16T01:39:12;6.22;;;5.82;;
70014;SDS011;57358;51.094;6.760;2023-04-16T01:41:41;9.52;;;5.65;;
70014;SDS011;57358;51.094;6.760;2023-04-16T01:44:07;5.22;;;4.75;;
70014;SDS011;57358;51.094;6.760;2023-04-16T01:46:34;5.63;;;4.97;;
70014;SDS011;57358;51.094;6.760;2023-04-16T01:49:01;5.50;;;5.05;;
70014;SDS011;57358;51.094;6.760;2023-04-16T01:51:29;6.55;;;5.95;;
70014;SDS011;57358;51.094;6.760;2023-04-16T01:53:56;5.78;;;5.22;;
70014;SDS011;57358;51.094;6.760;2023-04-16T01:56:23;7.18;;;6.47;;
70014;SDS011;57358;51.094;6.760;2023-04-16T01:58:50;5.93;;;5.53;;
70014;SDS011;57358;51.094;6.760;2023-04-16T02:01:16;5.93;;;5.28;;
70014;SDS011;57358;51.094;6.760;2023-04-16T02:03:43;6.20;;;5.57;;
70014;SDS011;57358;51.094;6.760;2023-04-16T02:06:10;23.23;;;6.47;;
70014;SDS011;57358;51.094;6.760;2023-04-16T02:08:36;5.07;;;4.68;;
70014;SDS011;57358;51.094;6.760;2023-04-16T02:11:03;5.78;;;5.28;;
70014;SDS011;57358;51.094;6.760;2023-04-16T02:13:29;5.95;;;5.35;;
70014;SDS011;57358;51.094;6.760;2023-04-16T02:15:55;5.50;;;5.00;;
70014;SDS011;57358;51.094;6.760;2023-04-16T02:18:22;5.70;;;5.15;;
70014;SDS011;57358;51.094;6.760;2023-04-16T02:20:48;5.40;;;4.90;;
70014;SDS011;57358;51.094;6.760;2023-04-16T02:23:15;5.65;;;5.13;;
70014;SDS011;57358;51.094;6.760;2023-04-16T02:25:43;16.45;;;5.90;;
70014;SDS011;57358;51.094;6.760;2023-04-16T02:28:13;6.15;;;5.60;;
70014;SDS011;57358;51.094;6.760;2023-04-16T02:30:42;7.43;;;5.93;;
70014;SDS011;57358;51.094;6.760;2023-04-16T02:33:09;6.63;;;5.28;;
70014;SDS011;57358;51.094;6.760;2023-04-16T02:35:37;7.03;;;6.32;;
70014;SDS011;57358;51.094;6.760;2023-04-16T02:38:05;7.35;;;6.07;;
70014;SDS011;57358;51.094;6.760;2023-04-16T02:40:33;6.25;;;5.75;;
70014;SDS011;57358;51.094;6.760;2023-04-16T02:42:59;6.78;;;6.10;;
70014;SDS011;57358;51.094;6.760;2023-04-16T02:45:26;15.38;;;7.15;;
70014;SDS011;57358;51.094;6.760;2023-04-16T02:47:52;9.48;;;6.05;;
70014;SDS011;57358;51.094;6.760;2023-04-16T02:50:19;7.45;;;6.82;;
70014;SDS011;57358;51.094;6.760;2023-04-16T02:52:45;7.95;;;5.72;;
70014;SDS011;57358;51.094;6.760;2023-04-16T02:55:11;8.75;;;6.32;;
70014;SDS011;57358;51.094;6.760;2023-04-16T02:57:38;13.65;;;5.78;;
70014;SDS011;57358;51.094;6.760;2023-04-16T03:00:05;7.22;;;6.53;;
70014;SDS011;57358;51.094;6.760;2023-04-16T03:02:31;6.88;;;6.38;;
70014;SDS011;57358;51.094;6.760;2023-04-16T03:04:58;7.68;;;6.95;;
70014;SDS011;57358;51.094;6.760;2023-04-16T03:07:24;7.38;;;6.38;;
70014;SDS011;57358;51.094;6.760;2023-04-16T03:09:51;7.03;;;6.03;;
70014;SDS011;57358;51.094;6.760;2023-04-16T03:12:20;7.78;;;6.72;;
70014;SDS011;57358;51.094;6.760;2023-04-16T03:14:46;8.05;;;6.53;;
70014;SDS011;57358;51.094;6.760;2023-04-16T03:17:12;26.10;;;7.25;;
70014;SDS011;57358;51.094;6.760;2023-04-16T03:19:39;7.88;;;5.88;;
70014;SDS011;57358;51.094;6.760;2023-04-16T03:22:05;7.47;;;6.78;;
70014;SDS011;57358;51.094;6.760;2023-04-16T03:24:32;8.25;;;6.82;;
70014;SDS011;57358;51.094;6.760;2023-04-16T03:26:58;14.80;;;7.50;;
70014;SDS011;57358;51.094;6.760;2023-04-16T03:29:25;6.97;;;6.38;;
70014;SDS011;57358;51.094;6.760;2023-04-16T03:31:52;10.68;;;5.30;;
70014;SDS011;57358;51.094;6.760;2023-04-16T03:34:18;22.23;;;7.10;;
70014;SDS011;57358;51.094;6.760;2023-04-16T03:36:45;7.82;;;7.13;;
70014;SDS011;57358;51.094;6.760;2023-04-16T03:39:11;7.63;;;6.93;;
70014;SDS011;57358;51.094;6.760;2023-04-16T03:41:37;8.43;;;7.47;;
70014;SDS011;57358;51.094;6.760;2023-04-16T03:44:04;6.05;;;5.47;;
70014;SDS011;57358;51.094;6.760;2023-04-16T03:46:30;10.35;;;7.45;;
70014;SDS011;57358;51.094;6.760;2023-04-16T03:48:57;9.13;;;7.05;;
70014;SDS011;57358;51.094;6.760;2023-04-16T03:51:23;7.03;;;6.35;;
70014;SDS011;57358;51.094;6.760;2023-04-16T03:53:50;7.53;;;6.50;;
70014;SDS011;57358;51.094;6.760;2023-04-16T03:56:16;6.85;;;6.32;;
70014;SDS011;57358;51.094;6.760;2023-04-16T03:58:43;8.35;;;6.38;;
70014;SDS011;57358;51.094;6.760;2023-04-16T04:01:09;8.55;;;7.63;;
70014;SDS011;57358;51.094;6.760;2023-04-16T04:03:36;6.07;;;5.47;;
70014;SDS011;57358;51.094;6.760;2023-04-16T04:06:06;12.40;;;6.35;;
70014;SDS011;57358;51.094;6.760;2023-04-16T04:08:33;6.82;;;6.15;;
70014;SDS011;57358;51.094;6.760;2023-04-16T04:11:00;14.68;;;7.55;;
70014;SDS011;57358;51.094;6.760;2023-04-16T04:13:26;7.97;;;6.07;;
70014;SDS011;57358;51.094;6.760;2023-04-16T04:15:52;15.73;;;7.68;;
70014;SDS011;57358;51.094;6.760;2023-04-16T04:18:19;13.85;;;7.13;;
70014;SDS011;57358;51.094;6.760;2023-04-16T04:20:45;17.00;;;7.68;;
70014;SDS011;57358;51.094;6.760;2023-04-16T04:23:12;11.00;;;7.03;;
70014;SDS011;57358;51.094;6.760;2023-04-16T04:25:40;16.45;;;8.10;;
70014;SDS011;57358;51.094;6.760;2023-04-16T04:28:07;13.15;;;8.43;;
70014;SDS011;57358;51.094;6.760;2023-04-16T04:30:33;14.75;;;6.88;;
70014;SDS011;57358;51.094;6.760;2023-04-16T04:33:01;8.55;;;7.68;;
70014;SDS011;57358;51.094;6.760;2023-04-16T04:35:27;9.18;;;6.97;;
70014;SDS011;57358;51.094;6.760;2023-04-16T04:37:54;13.82;;;7.07;;
70014;SDS011;57358;51.094;6.760;2023-04-16T04:40:20;17.10;;;7.57;;
70014;SDS011;57358;51.094;6.760;2023-04-16T04:42:47;15.10;;;7.32;;
70014;SDS011;57358;51.094;6.760;2023-04-16T04:45:13;19.52;;;6.65;;
70014;SDS011;57358;51.094;6.760;2023-04-16T04:47:40;9.23;;;6.15;;
70014;SDS011;57358;51.094;6.760;2023-04-16T04:50:06;12.02;;;9.20;;
70014;SDS011;57358;51.094;6.760;2023-04-16T04:52:33;14.88;;;8.30;;
70014;SDS011;57358;51.094;6.760;2023-04-16T04:54:59;9.25;;;6.72;;
70014;SDS011;57358;51.094;6.760;2023-04-16T04:57:26;9.05;;;6.40;;
70014;SDS011;57358;51.094;6.760;2023-04-16T04:59:52;8.05;;;6.47;;
70014;SDS011;57358;51.094;6.760;2023-04-16T05:02:19;14.05;;;6.65;;
70014;SDS011;57358;51.094;6.760;2023-04-16T05:04:48;6.07;;;5.68;;
70014;SDS011;57358;51.094;6.760;2023-04-16T05:07:14;17.65;;;7.13;;
70014;SDS011;57358;51.094;6.760;2023-04-16T05:09:41;6.55;;;5.90;;
70014;SDS011;57358;51.094;6.760;2023-04-16T05:12:07;8.05;;;6.13;;
70014;SDS011;57358;51.094;6.760;2023-04-16T05:14:34;7.65;;;6.97;;
70014;SDS011;57358;51.094;6.760;2023-04-16T05:17:01;8.07;;;7.18;;
70014;SDS011;57358;51.094;6.760;2023-04-16T05:19:27;10.32;;;6.78;;
70014;SDS011;57358;51.094;6.760;2023-04-16T05:21:54;14.02;;;7.40;;
70014;SDS011;57358;51.094;6.760;2023-04-16T05:24:21;6.82;;;6.13;;
70014;SDS011;57358;51.094;6.760;2023-04-16T05:26:47;9.55;;;8.25;;
70014;SDS011;57358;51.094;6.760;2023-04-16T05:29:13;7.38;;;6.78;;
70014;SDS011;57358;51.094;6.760;2023-04-16T05:31:40;9.00;;;7.70;;
70014;SDS011;57358;51.094;6.760;2023-04-16T05:34:06;7.10;;;6.40;;
70014;SDS011;57358;51.094;6.760;2023-04-16T05:36:33;10.98;;;7.53;;
70014;SDS011;57358;51.094;6.760;2023-04-16T05:38:59;9.35;;;7.85;;
70014;SDS011;57358;51.094;6.760;2023-04-16T05:41:25;9.13;;;6.68;;
70014;SDS011;57358;51.094;6.760;2023-04-16T05:43:52;10.32;;;7.32;;
70014;SDS011;57358;51.094;6.760;2023-04-16T05:46:18;14.68;;;8.55;;
70014;SDS011;57358;51.094;6.760;2023-04-16T05:48:45;7.45;;;6.70;;
70014;SDS011;57358;51.094;6.760;2023-04-16T05:51:11;8.23;;;6.63;;
70014;SDS011;57358;51.094;6.760;2023-04-16T05:53:38;10.98;;;6.63;;
70014;SDS011;57358;51.094;6.760;2023-04-16T05:56:06;9.10;;;7.78;;
70014;SDS011;57358;51.094;6.760;2023-04-16T05:58:33;8.60;;;7.07;;
70014;SDS011;57358;51.094;6.760;2023-04-16T06:01:00;7.93;;;6.40;;
70014;SDS011;57358;51.094;6.760;2023-04-16T06:03:27;8.02;;;5.85;;
70014;SDS011;57358;51.094;6.760;2023-04-16T06:05:56;6.10;;;5.70;;
70014;SDS011;57358;51.094;6.760;2023-04-16T06:08:23;12.38;;;8.57;;
70014;SDS011;57358;51.094;6.760;2023-04-16T06:10:49;15.60;;;7.18;;
70014;SDS011;57358;51.094;6.760;2023-04-16T06:13:16;12.30;;;7.63;;
70014;SDS011;57358;51.094;6.760;2023-04-16T06:15:44;14.98;;;6.65;;
70014;SDS011;57358;51.094;6.760;2023-04-16T06:18:10;18.92;;;7.38;;
70014;SDS011;57358;51.094;6.760;2023-04-16T06:20:37;8.68;;;7.20;;
70014;SDS011;57358;51.094;6.760;2023-04-16T06:23:03;8.10;;;5.95;;
70014;SDS011;57358;51.094;6.760;2023-04-16T06:25:29;7.53;;;6.78;;
70014;SDS011;57358;51.094;6.760;2023-04-16T06:27:56;17.15;;;5.95;;
70014;SDS011;57358;51.094;6.760;2023-04-16T06:30:22;7.50;;;6.03;;
70014;SDS011;57358;51.094;6.760;2023-04-16T06:32:49;10.70;;;8.43;;
70014;SDS011;57358;51.094;6.760;2023-04-16T06:35:19;9.50;;;6.82;;
70014;SDS011;57358;51.094;6.760;2023-04-16T06:37:45;7.18;;;6.43;;
70014;SDS011;57358;51.094;6.760;2023-04-16T06:40:12;10.48;;;6.65;;
70014;SDS011;57358;51.094;6.760;2023-04-16T06:42:39;9.02;;;6.97;;
70014;SDS011;57358;51.094;6.760;2023-04-16T06:45:08;10.20;;;6.68;;
70014;SDS011;57358;51.094;6.760;2023-04-16T06:47:37;6.20;;;5.68;;
70014;SDS011;57358;51.094;6.760;2023-04-16T06:50:04;9.70;;;7.30;;
70014;SDS011;57358;51.094;6.760;2023-04-16T06:52:34;28.73;;;26.92;;
70014;SDS011;57358;51.094;6.760;2023-04-16T06:55:40;7.45;;;5.85;;
70014;SDS011;57358;51.094;6.760;2023-04-16T06:58:07;7.57;;;6.75;;
70014;SDS011;57358;51.094;6.760;2023-04-16T07:00:34;6.30;;;5.82;;
70014;SDS011;57358;51.094;6.760;2023-04-16T07:03:00;8.88;;;7.75;;
70014;SDS011;57358;51.094;6.760;2023-04-16T07:05:28;6.35;;;5.75;;
70014;SDS011;57358;51.094;6.760;2023-04-16T07:08:03;9.35;;;6.57;;
70014;SDS011;57358;51.094;6.760;2023-04-16T07:10:29;12.63;;;8.02;;
70014;SDS011;57358;51.094;6.760;2023-04-16T07:12:56;10.32;;;6.75;;
70014;SDS011;57358;51.094;6.760;2023-04-16T07:15:22;13.48;;;5.57;;
70014;SDS011;57358;51.094;6.760;2023-04-16T07:17:49;7.03;;;6.43;;
70014;SDS011;57358;51.094;6.760;2023-04-16T07:20:15;9.25;;;5.75;;
70014;SDS011;57358;51.094;6.760;2023-04-16T07:22:42;7.82;;;6.68;;
70014;SDS011;57358;51.094;6.760;2023-04-16T07:25:08;8.77;;;7.90;;
70014;SDS011;57358;51.094;6.760;2023-04-16T07:27:35;14.38;;;8.27;;
70014;SDS011;57358;51.094;6.760;2023-04-16T07:30:01;11.48;;;8.25;;
70014;SDS011;57358;51.094;6.760;2023-04-16T07:32:27;11.00;;;7.07;;
70014;SDS011;57358;51.094;6.760;2023-04-16T07:34:54;15.38;;;8.93;;
70014;SDS011;57358;51.094;6.760;2023-04-16T07:37:21;16.90;;;8.80;;
70014;SDS011;57358;51.094;6.760;2023-04-16T07:39:47;12.77;;;9.18;;
70014;SDS011;57358;51.094;6.760;2023-04-16T07:42:14;15.55;;;9.05;;
70014;SDS011;57358;51.094;6.760;2023-04-16T07:44:40;16.42;;;9.38;;
70014;SDS011;57358;51.094;6.760;2023-04-16T07:47:07;17.38;;;9.70;;
70014;SDS011;57358;51.094;6.760;2023-04-16T07:49:33;12.35;;;9.20;;
70014;SDS011;57358;51.094;6.760;2023-04-16T07:51:59;21.08;;;11.65;;
70014;SDS011;57358;51.094;6.760;2023-04-16T07:54:26;14.00;;;10.30;;
70014;SDS011;57358;51.094;6.760;2023-04-16T07:56:54;12.77;;;10.90;;
70014;SDS011;57358;51.094;6.760;2023-04-16T07:59:21;13.80;;;10.70;;
70014;SDS011;57358;51.094;6.760;2023-04-16T08:01:51;15.60;;;9.45;;
70014;SDS011;57358;51.094;6.760;2023-04-16T08:04:19;21.67;;;11.43;;
70014;SDS011;57358;51.094;6.760;2023-04-16T08:06:50;20.63;;;11.32;;
70014;SDS011;57358;51.094;6.760;2023-04-16T08:09:18;20.75;;;10.30;;
70014;SDS011;57358;51.094;6.760;2023-04-16T08:11:45;26.73;;;12.32;;
70014;SDS011;57358;51.094;6.760;2023-04-16T08:14:14;21.80;;;12.63;;
70014;SDS011;57358;51.094;6.760;2023-04-16T08:16:41;19.10;;;12.95;;
70014;SDS011;57358;51.094;6.760;2023-04-16T08:19:08;20.00;;;15.10;;
70014;SDS011;57358;51.094;6.760;2023-04-16T08:21:35;34.45;;;13.35;;
70014;SDS011;57358;51.094;6.760;2023-04-16T08:24:01;29.45;;;12.00;;
70014;SDS011;57358;51.094;6.760;2023-04-16T08:26:27;26.10;;;12.70;;
70014;SDS011;57358;51.094;6.760;2023-04-16T08:28:54;19.83;;;13.05;;
70014;SDS011;57358;51.094;6.760;2023-04-16T08:31:20;21.08;;;12.55;;
70014;SDS011;57358;51.094;6.760;2023-04-16T08:33:47;19.25;;;12.32;;
70014;SDS011;57358;51.094;6.760;2023-04-16T08:36:13;27.80;;;12.18;;
70014;SDS011;57358;51.094;6.760;2023-04-16T08:38:40;20.27;;;12.38;;
70014;SDS011;57358;51.094;6.760;2023-04-16T08:41:07;20.25;;;12.45;;
70014;SDS011;57358;51.094;6.760;2023-04-16T08:43:37;22.48;;;12.52;;
70014;SDS011;57358;51.094;6.760;2023-04-16T08:46:07;17.63;;;12.30;;
70014;SDS011;57358;51.094;6.760;2023-04-16T08:48:34;19.30;;;11.65;;
70014;SDS011;57358;51.094;6.760;2023-04-16T08:51:02;20.15;;;12.70;;
70014;SDS011;57358;51.094;6.760;2023-04-16T08:53:31;23.95;;;13.50;;
70014;SDS011;57358;51.094;6.760;2023-04-16T08:56:02;18.35;;;12.30;;
70014;SDS011;57358;51.094;6.760;2023-04-16T08:58:30;19.30;;;11.93;;
70014;SDS011;57358;51.094;6.760;2023-04-16T09:01:01;16.90;;;11.13;;
70014;SDS011;57358;51.094;6.760;2023-04-16T09:03:29;28.95;;;11.63;;
70014;SDS011;57358;51.094;6.760;2023-04-16T09:06:01;19.40;;;10.95;;
70014;SDS011;57358;51.094;6.760;2023-04-16T09:08:29;20.02;;;12.05;;
70014;SDS011;57358;51.094;6.760;2023-04-16T09:10:57;20.08;;;11.27;;
70014;SDS011;57358;51.094;6.760;2023-04-16T09:13:24;18.85;;;10.32;;
70014;SDS011;57358;51.094;6.760;2023-04-16T09:15:52;14.43;;;10.88;;
70014;SDS011;57358;51.094;6.760;2023-04-16T09:18:19;14.18;;;9.25;;
70014;SDS011;57358;51.094;6.760;2023-04-16T09:20:47;13.85;;;9.93;;
70014;SDS011;57358;51.094;6.760;2023-04-16T09:23:16;17.05;;;9.02;;
70014;SDS011;57358;51.094;6.760;2023-04-16T09:25:43;21.45;;;11.52;;
70014;SDS011;57358;51.094;6.760;2023-04-16T09:28:09;18.88;;;10.98;;
70014;SDS011;57358;51.094;6.760;2023-04-16T09:30:36;14.80;;;9.73;;
70014;SDS011;57358;51.094;6.760;2023-04-16T09:33:18;28.17;;;13.98;;
70014;SDS011;57358;51.094;6.760;2023-04-16T09:35:49;19.10;;;12.57;;
70014;SDS011;57358;51.094;6.760;2023-04-16T09:38:17;23.15;;;12.82;;
70014;SDS011;57358;51.094;6.760;2023-04-16T09:40:44;29.35;;;13.00;;
70014;SDS011;57358;51.094;6.760;2023-04-16T09:43:13;19.63;;;12.30;;
70014;SDS011;57358;51.094;6.760;2023-04-16T09:45:53;17.83;;;12.02;;
70014;SDS011;57358;51.094;6.760;2023-04-16T09:48:30;14.05;;;11.43;;
70014;SDS011;57358;51.094;6.760;2023-04-16T09:50:58;15.15;;;11.80;;
70014;SDS011;57358;51.094;6.760;2023-04-16T09:53:29;21.42;;;12.43;;
70014;SDS011;57358;51.094;6.760;2023-04-16T09:58:23;14.57;;;10.98;;
70014;SDS011;57358;51.094;6.760;2023-04-16T10:01:09;18.55;;;11.57;;
70014;SDS011;57358;51.094;6.760;2023-04-16T10:03:38;12.82;;;10.40;;
70014;SDS011;57358;51.094;6.760;2023-04-16T10:08:32;21.92;;;10.95;;
70014;SDS011;57358;51.094;6.760;2023-04-16T10:10:58;20.95;;;12.02;;
70014;SDS011;57358;51.094;6.760;2023-04-16T10:13:26;23.35;;;10.73;;
70014;SDS011;57358;51.094;6.760;2023-04-16T10:15:54;25.95;;;12.27;;
70014;SDS011;57358;51.094;6.760;2023-04-16T10:18:22;14.88;;;10.48;;
70014;SDS011;57358;51.094;6.760;2023-04-16T10:20:49;16.90;;;10.88;;
70014;SDS011;57358;51.094;6.760;2023-04-16T10:23:16;18.27;;;11.52;;
70014;SDS011;57358;51.094;6.760;2023-04-16T10:25:44;15.35;;;11.77;;
70014;SDS011;57358;51.094;6.760;2023-04-16T10:28:11;15.63;;;11.63;;
70014;SDS011;57358;51.094;6.760;2023-04-16T10:30:39;19.98;;;11.32;;
70014;SDS011;57358;51.094;6.760;2023-04-16T10:33:07;22.25;;;12.10;;
70014;SDS011;57358;51.094;6.760;2023-04-16T10:35:38;15.57;;;11.13;;
70014;SDS011;57358;51.094;6.760;2023-04-16T10:38:24;19.98;;;10.77;;
70014;SDS011;57358;51.094;6.760;2023-04-16T10:40:58;16.85;;;11.70;;
70014;SDS011;57358;51.094;6.760;2023-04-16T10:43:27;18.42;;;11.50;;
70014;SDS011;57358;51.094;6.760;2023-04-16T10:45:55;18.15;;;11.68;;
70014;SDS011;57358;51.094;6.760;2023-04-16T10:48:22;22.15;;;11.57;;
70014;SDS011;57358;51.094;6.760;2023-04-16T10:50:53;20.48;;;13.00;;
70014;SDS011;57358;51.094;6.760;2023-04-16T10:53:23;16.92;;;12.25;;
70014;SDS011;57358;51.094;6.760;2023-04-16T10:55:55;18.60;;;11.15;;
70014;SDS011;57358;51.094;6.760;2023-04-16T10:58:27;19.35;;;12.45;;
70014;SDS011;57358;51.094;6.760;2023-04-16T11:00:54;23.83;;;12.13;;
70014;SDS011;57358;51.094;6.760;2023-04-16T11:03:20;14.95;;;11.63;;
70014;SDS011;57358;51.094;6.760;2023-04-16T11:05:47;17.20;;;11.65;;
70014;SDS011;57358;51.094;6.760;2023-04-16T11:08:13;16.60;;;11.40;;
70014;SDS011;57358;51.094;6.760;2023-04-16T11:10:41;22.15;;;12.65;;
70014;SDS011;57358;51.094;6.760;2023-04-16T11:13:07;18.25;;;12.25;;
70014;SDS011;57358;51.094;6.760;2023-04-16T11:15:37;24.08;;;12.63;;
70014;SDS011;57358;51.094;6.760;2023-04-16T11:18:04;16.95;;;11.85;;
70014;SDS011;57358;51.094;6.760;2023-04-16T11:20:32;17.85;;;12.18;;
70014;SDS011;57358;51.094;6.760;2023-04-16T11:22:58;17.23;;;13.68;;
70014;SDS011;57358;51.094;6.760;2023-04-16T11:25:28;17.63;;;11.50;;
70014;SDS011;57358;51.094;6.760;2023-04-16T11:27:56;17.83;;;11.47;;
70014;SDS011;57358;51.094;6.760;2023-04-16T11:30:28;17.13;;;10.77;;
70014;SDS011;57358;51.094;6.760;2023-04-16T11:33:08;13.65;;;10.32;;
70014;SDS011;57358;51.094;6.760;2023-04-16T11:35:38;19.73;;;11.27;;
70014;SDS011;57358;51.094;6.760;2023-04-16T11:38:04;15.40;;;11.70;;
70014;SDS011;57358;51.094;6.760;2023-04-16T11:40:32;15.18;;;11.50;;
70014;SDS011;57358;51.094;6.760;2023-04-16T11:43:12;13.55;;;11.52;;
70014;SDS011;57358;51.094;6.760;2023-04-16T11:45:54;16.73;;;12.27;;
70014;SDS011;57358;51.094;6.760;2023-04-16T11:48:45;15.23;;;11.02;;
70014;SDS011;57358;51.094;6.760;2023-04-16T11:51:21;16.95;;;11.27;;
70014;SDS011;57358;51.094;6.760;2023-04-16T11:53:51;18.38;;;11.85;;
70014;SDS011;57358;51.094;6.760;2023-04-16T11:56:25;15.35;;;10.68;;
70014;SDS011;57358;51.094;6.760;2023-04-16T11:59:11;19.70;;;12.20;;
70014;SDS011;57358;51.094;6.760;2023-04-16T12:01:39;16.40;;;10.77;;
70014;SDS011;57358;51.094;6.760;2023-04-16T12:04:06;14.35;;;10.30;;
70014;SDS011;57358;51.094;6.760;2023-04-16T12:06:34;17.95;;;10.88;;
70014;SDS011;57358;51.094;6.760;2023-04-16T12:09:20;11.18;;;9.73;;
70014;SDS011;57358;51.094;6.760;2023-04-16T12:11:47;17.75;;;11.75;;
70014;SDS011;57358;51.094;6.760;2023-04-16T12:14:14;14.23;;;11.48;;
70014;SDS011;57358;51.094;6.760;2023-04-16T12:16:40;15.40;;;10.90;;
70014;SDS011;57358;51.094;6.760;2023-04-16T12:19:09;12.88;;;10.20;;
70014;SDS011;57358;51.094;6.760;2023-04-16T12:21:41;19.80;;;12.00;;
70014;SDS011;57358;51.094;6.760;2023-04-16T12:24:10;12.25;;;10.50;;
70014;SDS011;57358;51.094;6.760;2023-04-16T12:26:40;14.50;;;9.88;;
70014;SDS011;57358;51.094;6.760;2023-04-16T12:29:18;13.40;;;11.15;;
70014;SDS011;57358;51.094;6.760;2023-04-16T12:31:47;17.08;;;11.20;;
70014;SDS011;57358;51.094;6.760;2023-04-16T12:34:14;17.92;;;11.00;;
70014;SDS011;57358;51.094;6.760;2023-04-16T12:36:42;12.48;;;11.18;;
70014;SDS011;57358;51.094;6.760;2023-04-16T12:39:11;11.75;;;9.98;;
70014;SDS011;57358;51.094;6.760;2023-04-16T12:41:41;12.18;;;10.75;;
70014;SDS011;57358;51.094;6.760;2023-04-16T12:44:09;17.23;;;11.65;;
70014;SDS011;57358;51.094;6.760;2023-04-16T12:46:38;13.85;;;10.80;;
70014;SDS011;57358;51.094;6.760;2023-04-16T12:49:05;11.68;;;9.57;;
70014;SDS011;57358;51.094;6.760;2023-04-16T12:51:33;12.50;;;9.85;;
70014;SDS011;57358;51.094;6.760;2023-04-16T12:54:01;10.65;;;9.60;;
70014;SDS011;57358;51.094;6.760;2023-04-16T12:56:29;15.80;;;10.43;;
70014;SDS011;57358;51.094;6.760;2023-04-16T12:58:56;15.27;;;9.90;;
70014;SDS011;57358;51.094;6.760;2023-04-16T13:01:22;14.10;;;10.35;;
70014;SDS011;57358;51.094;6.760;2023-04-16T13:03:49;14.02;;;9.32;;
70014;SDS011;57358;51.094;6.760;2023-04-16T13:06:16;13.52;;;9.60;;
70014;SDS011;57358;51.094;6.760;2023-04-16T13:08:43;13.15;;;9.82;;
70014;SDS011;57358;51.094;6.760;2023-04-16T13:11:10;13.00;;;9.30;;
70014;SDS011;57358;51.094;6.760;2023-04-16T13:13:36;18.25;;;10.07;;
70014;SDS011;57358;51.094;6.760;2023-04-16T13:16:03;18.45;;;9.80;;
70014;SDS011;57358;51.094;6.760;2023-04-16T13:18:31;36.22;;;15.60;;
70014;SDS011;57358;51.094;6.760;2023-04-16T13:20:58;14.55;;;10.90;;
70014;SDS011;57358;51.094;6.760;2023-04-16T13:23:24;15.88;;;9.43;;
70014;SDS011;57358;51.094;6.760;2023-04-16T13:25:52;23.98;;;10.05;;
70014;SDS011;57358;51.094;6.760;2023-04-16T13:28:18;15.02;;;10.10;;
70014;SDS011;57358;51.094;6.760;2023-04-16T13:30:45;11.55;;;9.80;;
70014;SDS011;57358;51.094;6.760;2023-04-16T13:33:12;12.35;;;9.73;;
70014;SDS011;57358;51.094;6.760;2023-04-16T13:35:38;16.52;;;9.13;;
70014;SDS011;57358;51.094;6.760;2023-04-16T13:38:04;11.55;;;8.65;;
70014;SDS011;57358;51.094;6.760;2023-04-16T13:40:31;12.95;;;9.20;;
70014;SDS011;57358;51.094;6.760;2023-04-16T13:42:57;14.45;;;9.57;;
70014;SDS011;57358;51.094;6.760;2023-04-16T13:45:24;12.88;;;8.98;;
70014;SDS011;57358;51.094;6.760;2023-04-16T13:47:52;14.73;;;9.18;;
70014;SDS011;57358;51.094;6.760;2023-04-16T13:50:19;11.85;;;9.65;;
70014;SDS011;57358;51.094;6.760;2023-04-16T13:52:46;14.77;;;9.45;;
70014;SDS011;57358;51.094;6.760;2023-04-16T13:55:12;11.60;;;9.40;;
70014;SDS011;57358;51.094;6.760;2023-04-16T13:57:39;18.15;;;10.00;;
70014;SDS011;57358;51.094;6.760;2023-04-16T14:00:06;12.85;;;10.00;;
70014;SDS011;57358;51.094;6.760;2023-04-16T14:02:38;14.18;;;10.35;;
70014;SDS011;57358;51.094;6.760;2023-04-16T14:05:04;17.17;;;11.30;;
70014;SDS011;57358;51.094;6.760;2023-04-16T14:07:32;17.35;;;9.88;;
70014;SDS011;57358;51.094;6.760;2023-04-16T14:09:58;13.25;;;10.35;;
70014;SDS011;57358;51.094;6.760;2023-04-16T14:12:24;17.70;;;11.00;;
70014;SDS011;57358;51.094;6.760;2023-04-16T14:14:52;17.58;;;10.75;;
70014;SDS011;57358;51.094;6.760;2023-04-16T14:17:18;16.30;;;10.48;;
70014;SDS011;57358;51.094;6.760;2023-04-16T14:19:44;14.70;;;11.68;;
70014;SDS011;57358;51.094;6.760;2023-04-16T14:22:11;14.27;;;10.05;;
70014;SDS011;57358;51.094;6.760;2023-04-16T14:24:37;13.38;;;9.68;;
70014;SDS011;57358;51.094;6.760;2023-04-16T14:27:04;18.50;;;10.55;;
70014;SDS011;57358;51.094;6.760;2023-04-16T14:29:30;11.65;;;9.70;;
70014;SDS011;57358;51.094;6.760;2023-04-16T14:31:56;14.32;;;10.00;;
70014;SDS011;57358;51.094;6.760;2023-04-16T14:34:23;12.48;;;9.85;;
70014;SDS011;57358;51.094;6.760;2023-04-16T14:36:49;11.93;;;9.27;;
70014;SDS011;57358;51.094;6.760;2023-04-16T14:39:17;12.63;;;10.50;;
70014;SDS011;57358;51.094;6.760;2023-04-16T14:41:43;17.48;;;10.02;;